createdAt,value
2022-10-19T00:01:15.563Z,13.30
2022-10-19T00:03:45.097Z,15.10
2022-10-19T00:06:18.447Z,15.70
2022-10-19T00:08:46.112Z,13.10
2022-10-19T00:11:13.726Z,14.80
2022-10-19T00:13:41.845Z,16.30
2022-10-19T00:16:13.134Z,16.20
2022-10-19T00:18:43.350Z,11.10
2022-10-19T00:21:13.565Z,16.00
2022-10-19T00:23:41.867Z,13.40
2022-10-19T00:26:10.094Z,14.50
2022-10-19T00:28:38.225Z,11.90
2022-10-19T00:31:17.771Z,14.70
2022-10-19T00:33:47.117Z,13.80
2022-10-19T00:36:21.412Z,10.90
2022-10-19T00:38:49.869Z,14.40
2022-10-19T00:41:19.690Z,11.60
2022-10-19T00:44:19.227Z,13.30
2022-10-19T00:46:51.673Z,14.90
2022-10-19T00:49:27.129Z,13.90
2022-10-19T00:52:04.325Z,12.40
2022-10-19T00:54:33.541Z,15.70
2022-10-19T00:57:01.138Z,12.50
2022-10-19T00:59:31.838Z,9.20
2022-10-19T01:02:02.583Z,11.20
2022-10-19T01:04:33.873Z,15.80
2022-10-19T01:07:05.081Z,15.30
2022-10-19T01:09:32.666Z,14.30
2022-10-19T01:12:19.366Z,13.20
2022-10-19T01:15:03.054Z,18.00
2022-10-19T01:17:36.756Z,14.70
2022-10-19T01:20:35.510Z,15.00
2022-10-19T01:23:27.861Z,11.40
2022-10-19T01:26:04.713Z,10.90
2022-10-19T01:29:04.438Z,11.80
2022-10-19T01:31:37.056Z,12.20
2022-10-19T01:34:18.116Z,10.50
2022-10-19T01:37:04.670Z,12.50
2022-10-19T01:39:49.804Z,10.80
2022-10-19T01:42:30.640Z,12.40
2022-10-19T01:45:24.694Z,12.60
2022-10-19T01:48:07.322Z,10.90
2022-10-19T01:50:48.091Z,14.30
2022-10-19T01:53:18.611Z,10.80
2022-10-19T01:55:50.325Z,12.40
2022-10-19T01:58:27.253Z,15.10
2022-10-19T02:00:59.915Z,13.60
2022-10-19T02:03:28.972Z,19.60
2022-10-19T02:05:56.859Z,12.60
2022-10-19T02:08:38.348Z,12.60
2022-10-19T02:11:06.274Z,14.00
2022-10-19T02:13:36.247Z,15.10
2022-10-19T02:16:09.322Z,13.70
2022-10-19T02:18:44.770Z,15.80
2022-10-19T02:21:12.727Z,11.50
2022-10-19T02:23:40.487Z,26.70
2022-10-19T02:26:08.659Z,13.60
2022-10-19T02:28:36.988Z,13.30
2022-10-19T02:31:05.112Z,17.40
2022-10-19T02:33:32.745Z,15.20
2022-10-19T02:36:00.700Z,19.10
2022-10-19T02:38:28.627Z,13.00
2022-10-19T02:41:13.359Z,13.90
2022-10-19T02:43:43.791Z,13.40
2022-10-19T02:46:23.028Z,8.10
2022-10-19T02:48:51.805Z,12.90
2022-10-19T02:51:38.607Z,15.90
2022-10-19T02:54:08.544Z,11.70
2022-10-19T02:56:36.108Z,9.60
2022-10-19T02:59:03.877Z,14.40
2022-10-19T03:01:31.800Z,10.80
2022-10-19T03:03:59.509Z,10.10
2022-10-19T03:06:27.125Z,9.50
2022-10-19T03:08:54.697Z,9.60
2022-10-19T03:11:22.348Z,12.40
2022-10-19T03:13:49.907Z,9.10
2022-10-19T03:16:17.696Z,11.60
2022-10-19T03:18:45.268Z,14.90
2022-10-19T03:21:13.387Z,15.30
2022-10-19T03:23:41.847Z,8.80
2022-10-19T03:26:14.810Z,10.60
2022-10-19T03:28:42.668Z,10.10
2022-10-19T03:31:10.347Z,11.30
2022-10-19T03:33:38.064Z,14.00
2022-10-19T03:36:25.938Z,14.90
2022-10-19T03:38:56.151Z,8.10
2022-10-19T03:41:27.373Z,10.00
2022-10-19T03:43:56.297Z,15.20
2022-10-19T03:46:24.927Z,10.10
2022-10-19T03:48:53.639Z,9.20
2022-10-19T03:51:24.798Z,13.20
2022-10-19T03:53:56.409Z,14.10
2022-10-19T03:56:26.368Z,10.20
2022-10-19T03:58:55.643Z,12.00
2022-10-19T04:01:30.159Z,12.90
2022-10-19T04:04:00.472Z,11.00
2022-10-19T04:06:31.612Z,10.80
2022-10-19T04:09:00.259Z,11.70
2022-10-19T04:11:30.597Z,11.90
2022-10-19T04:13:59.299Z,55.20
2022-10-19T04:16:29.135Z,15.10
2022-10-19T04:18:56.790Z,11.30
2022-10-19T04:21:32.136Z,13.30
2022-10-19T04:24:08.833Z,11.30
2022-10-19T04:26:46.016Z,9.90
2022-10-19T04:29:15.210Z,15.80
2022-10-19T04:31:43.093Z,12.80
2022-10-19T04:34:11.647Z,13.20
2022-10-19T04:36:39.330Z,18.70
2022-10-19T04:39:08.074Z,15.10
2022-10-19T04:41:38.317Z,10.70
2022-10-19T04:44:09.427Z,10.30
2022-10-19T04:46:38.486Z,10.80
2022-10-19T04:49:06.997Z,13.40
2022-10-19T04:51:35.259Z,12.80
2022-10-19T04:54:04.608Z,14.70
2022-10-19T04:56:32.351Z,9.30
2022-10-19T04:59:00.938Z,9.50
2022-10-19T05:01:31.232Z,18.90
2022-10-19T05:04:01.397Z,10.50
2022-10-19T05:06:30.718Z,12.10
2022-10-19T05:08:59.782Z,11.80
2022-10-19T05:11:27.781Z,10.30
2022-10-19T05:13:57.231Z,9.70
2022-10-19T05:16:25.977Z,17.60
2022-10-19T05:18:59.610Z,11.60
2022-10-19T05:21:29.234Z,12.30
2022-10-19T05:23:58.118Z,13.10
2022-10-19T05:26:28.041Z,13.80
2022-10-19T05:29:01.486Z,8.20
2022-10-19T05:31:32.744Z,22.70
2022-10-19T05:34:00.812Z,12.50
2022-10-19T05:36:34.780Z,10.50
2022-10-19T05:39:06.049Z,20.20
2022-10-19T05:41:34.664Z,18.00
2022-10-19T05:44:06.937Z,12.80
2022-10-19T05:46:38.024Z,11.40
2022-10-19T05:49:05.923Z,11.30
2022-10-19T05:51:34.872Z,11.00
2022-10-19T05:54:04.052Z,9.90
2022-10-19T05:56:32.860Z,11.90
2022-10-19T05:59:04.097Z,12.60
2022-10-19T06:01:33.286Z,17.10
2022-10-19T06:04:02.732Z,14.70
2022-10-19T06:06:34.758Z,18.60
2022-10-19T06:09:03.765Z,13.00
2022-10-19T06:11:35.163Z,13.30
2022-10-19T06:14:06.905Z,13.10
2022-10-19T06:16:35.400Z,20.70
2022-10-19T06:19:05.212Z,17.40
2022-10-19T06:21:34.582Z,16.00
2022-10-19T06:24:06.798Z,17.30
2022-10-19T06:26:35.860Z,11.00
2022-10-19T06:29:05.022Z,14.80
2022-10-19T06:31:35.466Z,11.80
2022-10-19T06:34:04.521Z,14.40
2022-10-19T06:36:33.407Z,13.10
2022-10-19T06:39:03.775Z,13.40
2022-10-19T06:41:32.559Z,13.80
2022-10-19T06:44:01.639Z,13.60
2022-10-19T06:46:29.429Z,21.90
2022-10-19T06:48:59.084Z,16.20
2022-10-19T06:51:29.308Z,17.20
2022-10-19T06:53:57.637Z,7.90
2022-10-19T06:56:26.708Z,13.40
2022-10-19T06:58:58.227Z,12.90
2022-10-19T07:01:25.902Z,11.60
2022-10-19T07:03:55.299Z,14.90
2022-10-19T07:06:24.302Z,15.00
2022-10-19T07:08:52.362Z,12.80
2022-10-19T07:11:22.802Z,14.50
2022-10-19T07:13:52.634Z,9.40
2022-10-19T07:16:21.978Z,13.70
2022-10-19T07:18:51.949Z,8.80
2022-10-19T07:21:22.953Z,7.10
2022-10-19T07:23:51.237Z,7.80
2022-10-19T07:26:27.411Z,8.20
2022-10-19T07:28:56.952Z,7.80
2022-10-19T07:31:27.370Z,8.60
2022-10-19T07:34:00.758Z,8.50
2022-10-19T07:36:30.402Z,6.40
2022-10-19T07:38:58.249Z,6.60
2022-10-19T07:41:26.309Z,6.00
2022-10-19T07:43:54.661Z,4.20
2022-10-19T07:46:26.789Z,6.10
2022-10-19T07:48:55.758Z,15.20
2022-10-19T07:51:23.526Z,10.20
2022-10-19T07:53:51.673Z,26.40
2022-10-19T07:56:24.174Z,31.50
2022-10-19T07:58:54.626Z,15.60
2022-10-19T08:01:25.134Z,8.90
2022-10-19T08:06:42.732Z,13.90
2022-10-19T08:09:15.611Z,8.30
2022-10-19T08:11:50.580Z,11.70
2022-10-19T08:14:18.171Z,12.10
2022-10-19T08:16:45.978Z,8.40
2022-10-19T08:19:16.119Z,8.30
2022-10-19T08:21:46.217Z,9.20
2022-10-19T08:24:16.233Z,12.90
2022-10-19T08:26:44.469Z,10.10
2022-10-19T08:29:14.688Z,7.40
2022-10-19T08:31:44.891Z,14.10
2022-10-19T08:34:14.083Z,11.40
2022-10-19T08:39:12.727Z,9.00
2022-10-19T08:41:40.879Z,15.70
2022-10-19T08:44:18.061Z,16.80
2022-10-19T08:47:07.155Z,12.50
2022-10-19T08:49:40.410Z,12.00
2022-10-19T08:52:19.921Z,18.80
2022-10-19T08:54:59.626Z,12.80
2022-10-19T08:57:50.526Z,8.60
2022-10-19T09:00:29.904Z,8.10
2022-10-19T09:03:27.187Z,6.90
2022-10-19T09:06:27.212Z,6.80
2022-10-19T09:08:57.171Z,5.40
2022-10-19T09:11:38.903Z,13.10
2022-10-19T09:14:14.941Z,6.80
2022-10-19T09:16:46.569Z,6.20
2022-10-19T09:19:23.033Z,4.90
2022-10-19T09:21:56.516Z,13.50
2022-10-19T09:24:31.407Z,8.00
2022-10-19T09:27:02.202Z,8.10
2022-10-19T09:29:41.897Z,7.50
2022-10-19T09:32:18.623Z,6.50
2022-10-19T09:35:18.318Z,6.20
2022-10-19T09:37:49.198Z,6.10
2022-10-19T09:40:30.843Z,5.30
2022-10-19T09:43:09.014Z,6.00
2022-10-19T09:45:57.055Z,5.00
2022-10-19T09:48:42.043Z,5.20
2022-10-19T09:51:15.271Z,6.30
2022-10-19T09:53:52.879Z,6.30
2022-10-19T09:56:23.056Z,5.20
2022-10-19T09:58:57.394Z,8.60
2022-10-19T10:01:46.124Z,5.60
2022-10-19T10:04:18.920Z,6.50
2022-10-19T10:06:48.839Z,6.30
2022-10-19T10:09:26.679Z,5.80
2022-10-19T10:11:59.717Z,5.30
2022-10-19T10:14:33.985Z,6.70
2022-10-19T10:17:11.356Z,5.20
2022-10-19T10:20:03.089Z,8.70
2022-10-19T10:22:35.349Z,13.10
2022-10-19T10:25:18.299Z,25.60
2022-10-19T10:27:55.932Z,29.70
2022-10-19T10:30:23.703Z,11.60
2022-10-19T10:32:54.766Z,11.80
2022-10-19T10:35:32.694Z,4.50
2022-10-19T10:38:17.791Z,9.60
2022-10-19T10:41:02.271Z,10.20
2022-10-19T10:43:34.204Z,11.30
2022-10-19T10:46:07.925Z,8.50
2022-10-19T10:48:40.871Z,7.90
2022-10-19T10:51:20.767Z,15.20
2022-10-19T10:53:48.738Z,9.30
2022-10-19T10:56:34.313Z,12.20
2022-10-19T10:59:12.214Z,11.40
2022-10-19T11:01:42.576Z,10.30
2022-10-19T11:04:25.500Z,11.60
2022-10-19T11:07:05.133Z,6.50
2022-10-19T11:09:44.058Z,6.30
2022-10-19T11:12:17.776Z,6.80
2022-10-19T11:14:57.878Z,9.90
2022-10-19T11:17:30.893Z,14.80
2022-10-19T11:19:58.676Z,11.40
2022-10-19T11:22:34.966Z,16.50
2022-10-19T11:25:18.860Z,11.40
2022-10-19T11:28:12.807Z,10.10
2022-10-19T11:31:03.965Z,8.00
2022-10-19T11:33:34.710Z,10.80
2022-10-19T11:36:12.508Z,9.90
2022-10-19T11:38:53.011Z,6.80
2022-10-19T11:41:54.184Z,13.00
2022-10-19T11:44:46.891Z,8.50
2022-10-19T11:47:37.152Z,6.20
2022-10-19T11:50:29.607Z,8.00
2022-10-19T11:53:24.752Z,7.00
2022-10-19T11:56:34.752Z,10.30
2022-10-19T11:59:39.105Z,12.40
2022-10-19T12:02:39.627Z,12.30
2022-10-19T12:05:16.737Z,13.30
2022-10-19T12:08:33.768Z,5.80
2022-10-19T12:11:18.454Z,6.40
2022-10-19T12:14:03.162Z,14.00
2022-10-19T12:16:38.192Z,8.00
2022-10-19T12:19:12.891Z,10.20
2022-10-19T12:21:43.604Z,8.00
2022-10-19T12:24:17.587Z,10.90
2022-10-19T12:26:46.985Z,12.40
2022-10-19T12:29:21.606Z,17.80
2022-10-19T12:31:52.562Z,14.90
2022-10-19T12:34:50.855Z,19.80
2022-10-19T12:37:48.232Z,14.00
2022-10-19T12:40:40.295Z,10.40
2022-10-19T12:43:15.078Z,11.40
2022-10-19T12:46:14.937Z,9.20
2022-10-19T12:48:42.577Z,10.10
2022-10-19T12:51:15.192Z,7.10
2022-10-19T12:56:33.088Z,6.60
2022-10-19T12:59:02.748Z,6.60
2022-10-19T13:01:39.587Z,7.50
2022-10-19T13:04:14.594Z,7.80
2022-10-19T13:07:12.387Z,10.10
2022-10-19T13:09:48.837Z,10.30
2022-10-19T13:12:23.536Z,8.70
2022-10-19T13:14:59.581Z,9.20
2022-10-19T13:17:36.589Z,7.50
2022-10-19T13:20:20.834Z,9.30
2022-10-19T13:23:17.285Z,7.30
2022-10-19T13:25:46.689Z,6.50
2022-10-19T13:28:15.594Z,8.00
2022-10-19T13:30:43.186Z,10.50
2022-10-19T13:33:30.299Z,16.50
2022-10-19T13:36:01.051Z,14.40
2022-10-19T13:38:32.898Z,9.10
2022-10-19T13:41:25.915Z,15.90
2022-10-19T13:44:12.201Z,12.00
2022-10-19T13:46:47.526Z,9.40
2022-10-19T13:49:41.839Z,8.30
2022-10-19T13:52:43.766Z,27.10
2022-10-19T13:59:07.874Z,38.10
2022-10-19T14:01:51.807Z,24.20
2022-10-19T14:04:58.633Z,23.90
2022-10-19T14:07:33.249Z,23.70
2022-10-19T14:10:14.186Z,30.90
2022-10-19T14:12:47.374Z,17.30
2022-10-19T14:15:17.897Z,54.90
2022-10-19T14:17:50.354Z,25.50
2022-10-19T14:20:36.009Z,37.10
2022-10-19T14:23:24.804Z,19.20
2022-10-19T14:25:57.662Z,40.80
2022-10-19T14:28:26.711Z,13.90
2022-10-19T14:31:08.377Z,32.00
2022-10-19T14:33:40.339Z,23.30
2022-10-19T14:36:16.503Z,85.00
2022-10-19T14:38:44.772Z,51.80
2022-10-19T14:41:36.784Z,51.00
2022-10-19T14:44:38.516Z,22.80
2022-10-19T14:47:27.162Z,84.00
2022-10-19T14:50:04.100Z,127.50
2022-10-19T14:52:48.957Z,197.10
2022-10-19T14:55:20.033Z,107.80
2022-10-19T14:58:05.628Z,110.90
2022-10-19T15:00:33.668Z,30.20
2022-10-19T15:03:10.140Z,21.70
2022-10-19T15:05:46.664Z,17.00
2022-10-19T15:08:29.926Z,14.40
2022-10-19T15:10:58.969Z,41.30
2022-10-19T15:17:03.270Z,48.60
2022-10-19T15:19:44.330Z,18.90
2022-10-19T15:22:33.385Z,24.60
2022-10-19T15:25:08.766Z,24.60
2022-10-19T15:27:43.106Z,21.40
2022-10-19T15:30:28.505Z,41.30
2022-10-19T15:33:02.726Z,11.90
2022-10-19T15:35:39.793Z,33.50
2022-10-19T15:38:25.469Z,36.60
2022-10-19T15:40:59.292Z,18.00
2022-10-19T15:43:51.785Z,25.50
2022-10-19T15:46:24.288Z,22.70
2022-10-19T15:48:57.432Z,23.40
2022-10-19T15:51:31.005Z,99.10
2022-10-19T15:54:03.220Z,41.60
2022-10-19T15:56:33.446Z,16.30
2022-10-19T15:59:04.283Z,22.00
2022-10-19T16:01:34.360Z,49.50
2022-10-19T16:04:03.225Z,39.60
2022-10-19T16:06:34.154Z,72.20
2022-10-19T16:09:02.958Z,45.30
2022-10-19T16:11:33.800Z,43.70
2022-10-19T16:14:01.452Z,47.70
2022-10-19T16:16:32.550Z,82.20
2022-10-19T16:19:00.844Z,76.30
2022-10-19T16:21:32.630Z,81.40
2022-10-19T16:24:00.711Z,131.10
2022-10-19T16:26:29.192Z,63.60
2022-10-19T16:28:56.867Z,66.50
2022-10-19T16:31:24.463Z,108.30
2022-10-19T16:33:52.102Z,108.60
2022-10-19T16:36:20.370Z,57.60
2022-10-19T16:38:48.054Z,72.60
2022-10-19T16:41:16.463Z,73.50
2022-10-19T16:43:44.245Z,70.00
2022-10-19T16:46:11.911Z,53.20
2022-10-19T16:48:39.554Z,99.60
2022-10-19T16:51:07.150Z,55.60
2022-10-19T16:53:36.874Z,57.90
2022-10-19T16:56:13.704Z,83.10
2022-10-19T16:58:41.268Z,52.90
2022-10-19T17:01:10.746Z,48.20
2022-10-19T17:03:38.657Z,60.60
2022-10-19T17:06:07.804Z,64.60
2022-10-19T17:09:07.385Z,52.80
2022-10-19T17:11:38.664Z,65.90
2022-10-19T17:14:13.004Z,104.00
2022-10-19T17:16:40.987Z,73.40
2022-10-19T17:19:10.225Z,113.20
2022-10-19T17:21:38.892Z,80.80
2022-10-19T17:24:09.495Z,56.00
2022-10-19T17:26:42.100Z,51.50
2022-10-19T17:29:09.890Z,46.30
2022-10-19T17:31:39.639Z,39.80
2022-10-19T17:34:08.538Z,36.30
2022-10-19T17:39:11.330Z,70.60
2022-10-19T17:41:39.037Z,89.60
2022-10-19T17:44:07.433Z,67.00
2022-10-19T17:46:35.957Z,85.70
2022-10-19T17:49:04.139Z,104.30
2022-10-19T17:51:33.970Z,71.10
2022-10-19T17:54:05.399Z,84.50
2022-10-19T17:56:34.708Z,96.20
2022-10-19T17:59:03.820Z,91.00
2022-10-19T18:01:31.537Z,218.60
2022-10-19T18:03:59.266Z,99.10
2022-10-19T18:06:31.641Z,138.80
2022-10-19T18:09:02.157Z,72.60
2022-10-19T18:11:35.929Z,52.40
2022-10-19T18:14:04.517Z,40.00
2022-10-19T18:16:35.412Z,35.20
2022-10-19T18:19:04.770Z,40.70
2022-10-19T18:21:38.378Z,51.60
2022-10-19T18:24:11.305Z,91.00
2022-10-19T18:26:42.646Z,84.00
2022-10-19T18:29:17.776Z,85.90
2022-10-19T18:31:51.238Z,175.00
2022-10-19T18:34:25.179Z,57.40
2022-10-19T18:36:53.835Z,125.80
2022-10-19T18:39:21.771Z,83.50
2022-10-19T18:41:56.315Z,39.10
2022-10-19T18:44:26.651Z,46.60
2022-10-19T18:46:57.399Z,64.60
2022-10-19T18:49:25.587Z,68.70
2022-10-19T18:51:55.435Z,43.20
2022-10-19T18:54:26.145Z,59.90
2022-10-19T18:56:55.138Z,68.40
2022-10-19T18:59:22.986Z,78.20
2022-10-19T19:01:50.957Z,74.10
2022-10-19T19:04:18.860Z,57.60
2022-10-19T19:06:46.888Z,54.40
2022-10-19T19:09:14.582Z,54.30
2022-10-19T19:11:42.255Z,55.10
2022-10-19T19:14:16.044Z,125.30
2022-10-19T19:16:45.498Z,61.70
2022-10-19T19:19:15.854Z,90.60
2022-10-19T19:21:44.980Z,107.30
2022-10-19T19:24:16.762Z,56.60
2022-10-19T19:26:49.282Z,34.30
2022-10-19T19:29:18.938Z,82.90
2022-10-19T19:31:47.325Z,50.40
2022-10-19T19:34:16.141Z,77.50
2022-10-19T19:36:50.757Z,170.00
2022-10-19T19:39:20.544Z,72.10
2022-10-19T19:41:49.539Z,30.60
2022-10-19T19:44:19.321Z,21.80
2022-10-19T19:46:47.040Z,96.00
2022-10-19T19:49:14.893Z,24.60
2022-10-19T19:51:43.054Z,21.80
2022-10-19T19:54:12.314Z,19.10
2022-10-19T19:56:42.340Z,43.50
2022-10-19T19:59:12.195Z,23.70
2022-10-19T20:01:40.281Z,20.30
2022-10-19T20:04:08.872Z,27.10
2022-10-19T20:06:38.815Z,23.20
2022-10-19T20:09:10.870Z,21.90
2022-10-19T20:11:42.413Z,22.80
2022-10-19T20:14:11.934Z,39.00
2022-10-19T20:16:39.877Z,49.30
2022-10-19T20:19:11.144Z,41.90
2022-10-19T20:21:39.312Z,39.50
2022-10-19T20:24:07.733Z,46.80
2022-10-19T20:26:37.399Z,36.20
2022-10-19T20:29:05.706Z,117.50
2022-10-19T20:31:39.551Z,41.70
2022-10-19T20:34:11.160Z,31.40
2022-10-19T20:36:39.854Z,18.80
2022-10-19T20:39:07.692Z,29.00
2022-10-19T20:41:35.532Z,27.10
2022-10-19T20:44:03.363Z,31.10
2022-10-19T20:46:31.811Z,45.70
2022-10-19T20:49:01.931Z,64.30
2022-10-19T20:51:32.951Z,29.90
2022-10-19T20:54:04.250Z,28.20
2022-10-19T20:56:35.898Z,53.40
2022-10-19T20:59:06.641Z,58.40
2022-10-19T21:01:37.774Z,106.70
2022-10-19T21:04:07.974Z,46.30
2022-10-19T21:06:46.340Z,42.30
2022-10-19T21:09:17.197Z,29.30
2022-10-19T21:11:46.191Z,29.40
2022-10-19T21:14:17.955Z,29.60
2022-10-19T21:16:45.679Z,33.90
2022-10-19T21:19:20.474Z,52.00
2022-10-19T21:21:52.642Z,58.80
2022-10-19T21:24:27.456Z,66.00
2022-10-19T21:26:55.120Z,49.60
2022-10-19T21:29:22.810Z,35.50
2022-10-19T21:31:53.534Z,42.60
2022-10-19T21:34:24.750Z,23.60
2022-10-19T21:36:53.865Z,18.20
2022-10-19T21:39:22.227Z,16.80
2022-10-19T21:41:50.242Z,14.10
2022-10-19T21:44:18.811Z,15.40
2022-10-19T21:46:49.766Z,34.00
2022-10-19T21:49:17.573Z,97.20
2022-10-19T21:51:47.198Z,183.90
2022-10-19T21:54:20.687Z,117.50
2022-10-19T21:56:48.507Z,78.00
2022-10-19T21:59:17.179Z,162.30
2022-10-19T22:01:44.892Z,70.00
2022-10-19T22:04:17.604Z,41.70
2022-10-19T22:06:46.076Z,64.10
2022-10-19T22:09:20.775Z,42.40
2022-10-19T22:11:48.834Z,24.80
2022-10-19T22:14:17.975Z,27.40
2022-10-19T22:16:45.610Z,32.70
2022-10-19T22:19:13.780Z,29.70
2022-10-19T22:21:41.508Z,29.70
2022-10-19T22:24:14.438Z,33.40
2022-10-19T22:26:46.222Z,39.80
2022-10-19T22:29:14.498Z,35.00
2022-10-19T22:31:42.792Z,44.60
2022-10-19T22:34:16.729Z,44.20
2022-10-19T22:36:45.255Z,31.10
2022-10-19T22:39:14.386Z,23.80
2022-10-19T22:41:42.113Z,20.10
2022-10-19T22:44:09.804Z,26.90
2022-10-19T22:46:37.625Z,17.40
2022-10-19T22:49:06.366Z,40.50
2022-10-19T22:51:34.057Z,32.00
2022-10-19T22:54:01.904Z,18.00
2022-10-19T22:56:30.176Z,28.80
2022-10-19T22:59:01.737Z,24.70
2022-10-19T23:01:29.466Z,24.60
2022-10-19T23:03:57.132Z,26.30
2022-10-19T23:06:25.012Z,17.90
2022-10-19T23:08:53.931Z,20.70
2022-10-19T23:11:22.637Z,19.00
2022-10-19T23:13:50.266Z,22.10
2022-10-19T23:16:18.008Z,24.50
2022-10-19T23:18:45.629Z,21.90
2022-10-19T23:21:14.286Z,41.90
2022-10-19T23:23:43.695Z,24.60
2022-10-19T23:26:17.447Z,28.90
2022-10-19T23:28:47.444Z,20.80
2022-10-19T23:31:20.862Z,18.20
2022-10-19T23:33:48.490Z,18.40
2022-10-19T23:36:23.218Z,12.60
2022-10-19T23:38:52.706Z,16.80
2022-10-19T23:41:22.747Z,16.40
2022-10-19T23:43:50.505Z,14.00
2022-10-19T23:46:18.668Z,16.50
2022-10-19T23:48:46.255Z,16.30
2022-10-19T23:51:16.300Z,16.30
2022-10-19T23:53:45.962Z,19.30
2022-10-19T23:56:29.618Z,17.60
2022-10-19T23:58:57.418Z,20.50
